createdAt,value
2023-09-30T00:02:03.585Z,16.47
2023-09-30T00:04:32.966Z,19.07
2023-09-30T00:07:02.556Z,14.57
2023-09-30T00:09:31.830Z,15.40
2023-09-30T00:12:03.149Z,15.73
2023-09-30T00:14:39.580Z,20.60
2023-09-30T00:17:09.028Z,17.43
2023-09-30T00:19:39.424Z,14.70
2023-09-30T00:22:19.501Z,14.80
2023-09-30T00:24:50.021Z,17.53
2023-09-30T00:27:20.813Z,14.90
2023-09-30T00:29:51.393Z,14.30
2023-09-30T00:32:20.716Z,17.00
2023-09-30T00:34:50.199Z,15.50
2023-09-30T00:37:22.201Z,18.27
2023-09-30T00:39:52.443Z,18.23
2023-09-30T00:42:24.793Z,15.17
2023-09-30T00:44:54.620Z,15.07
2023-09-30T00:47:24.348Z,17.07
2023-09-30T00:49:56.215Z,16.87
2023-09-30T00:52:38.949Z,16.73
2023-09-30T00:55:11.001Z,15.77
2023-09-30T00:57:41.868Z,15.57
2023-09-30T01:00:13.900Z,19.00
2023-09-30T01:02:43.436Z,16.40
2023-09-30T01:05:15.956Z,14.77
2023-09-30T01:07:46.981Z,21.97
2023-09-30T01:10:16.698Z,19.30
2023-09-30T01:13:23.104Z,17.73
2023-09-30T01:15:56.673Z,17.80
2023-09-30T01:18:27.059Z,16.43
2023-09-30T01:20:59.667Z,18.30
2023-09-30T01:23:31.011Z,17.50
2023-09-30T01:26:06.416Z,20.53
2023-09-30T01:28:36.406Z,21.57
2023-09-30T01:31:19.332Z,17.33
2023-09-30T01:33:48.797Z,17.40
2023-09-30T01:36:22.039Z,16.20
2023-09-30T01:38:54.085Z,18.10
2023-09-30T01:41:26.308Z,16.77
2023-09-30T01:44:05.583Z,15.53
2023-09-30T01:46:35.037Z,14.80
2023-09-30T01:50:06.049Z,13.97
2023-09-30T01:52:35.002Z,20.40
2023-09-30T01:56:01.261Z,17.73
2023-09-30T01:58:36.298Z,17.30
2023-09-30T02:01:49.752Z,22.17
2023-09-30T02:05:02.210Z,17.30
2023-09-30T02:07:36.431Z,14.53
2023-09-30T02:14:47.295Z,17.77
2023-09-30T02:17:31.939Z,19.23
2023-09-30T02:20:41.304Z,15.50
2023-09-30T02:23:14.038Z,16.17
2023-09-30T02:25:44.750Z,15.80
2023-09-30T02:28:38.109Z,16.50
2023-09-30T02:31:09.129Z,21.83
2023-09-30T02:34:34.062Z,16.90
2023-09-30T02:37:12.036Z,17.87
2023-09-30T02:39:45.397Z,23.10
2023-09-30T02:42:14.900Z,16.23
2023-09-30T02:44:44.085Z,19.03
2023-09-30T02:47:13.696Z,17.40
2023-09-30T02:49:42.839Z,15.00
2023-09-30T02:52:34.037Z,21.03
2023-09-30T02:55:06.575Z,18.93
2023-09-30T02:57:45.624Z,18.27
2023-09-30T03:00:25.518Z,23.33
2023-09-30T03:03:06.007Z,18.70
2023-09-30T03:05:41.154Z,17.17
2023-09-30T03:08:12.047Z,26.17
2023-09-30T03:10:43.888Z,24.47
2023-09-30T03:13:15.899Z,17.93
2023-09-30T03:15:47.699Z,16.63
2023-09-30T03:18:23.825Z,18.80
2023-09-30T03:20:58.113Z,15.37
2023-09-30T03:23:33.037Z,20.60
2023-09-30T03:26:04.440Z,17.57
2023-09-30T03:28:36.225Z,18.97
2023-09-30T03:31:07.560Z,21.13
2023-09-30T03:33:39.640Z,18.50
2023-09-30T03:36:14.193Z,15.07
2023-09-30T03:38:46.221Z,22.37
2023-09-30T03:41:15.640Z,16.90
2023-09-30T03:43:48.485Z,16.27
2023-09-30T03:46:18.084Z,18.80
2023-09-30T03:48:48.635Z,20.27
2023-09-30T03:51:18.445Z,15.87
2023-09-30T03:53:49.119Z,19.00
2023-09-30T03:56:20.021Z,20.73
2023-09-30T03:58:49.809Z,17.53
2023-09-30T04:01:21.337Z,19.73
2023-09-30T04:03:50.446Z,22.30
2023-09-30T04:06:19.503Z,23.67
2023-09-30T04:08:53.628Z,21.63
2023-09-30T04:11:22.713Z,21.73
2023-09-30T04:13:52.243Z,17.20
2023-09-30T04:16:22.821Z,23.33
2023-09-30T04:18:52.345Z,18.20
2023-09-30T04:21:21.473Z,32.00
2023-09-30T04:23:52.035Z,20.23
2023-09-30T04:26:21.146Z,22.67
2023-09-30T04:28:50.789Z,24.63
2023-09-30T04:31:22.139Z,19.87
2023-09-30T04:33:54.428Z,23.03
2023-09-30T04:36:24.431Z,19.67
2023-09-30T04:38:54.858Z,21.43
2023-09-30T04:41:26.942Z,25.17
2023-09-30T04:43:56.110Z,20.07
2023-09-30T04:46:27.850Z,23.13
2023-09-30T04:49:00.952Z,19.20
2023-09-30T04:51:34.864Z,31.37
2023-09-30T04:54:14.019Z,31.27
2023-09-30T04:56:43.024Z,35.30
2023-09-30T04:59:12.024Z,26.07
2023-09-30T05:01:43.667Z,23.73
2023-09-30T05:04:15.886Z,27.40
2023-09-30T05:06:47.304Z,30.83
2023-09-30T05:09:21.454Z,22.97
2023-09-30T05:11:51.618Z,31.20
2023-09-30T05:14:27.684Z,44.73
2023-09-30T05:16:58.696Z,26.07
2023-09-30T05:19:27.846Z,39.70
2023-09-30T05:21:57.348Z,32.60
2023-09-30T05:24:33.425Z,34.50
2023-09-30T05:27:11.285Z,31.47
2023-09-30T05:29:43.305Z,33.13
2023-09-30T05:32:12.591Z,30.93
2023-09-30T05:34:41.851Z,41.67
2023-09-30T05:37:18.769Z,26.93
2023-09-30T05:39:54.457Z,32.30
2023-09-30T05:42:23.994Z,30.13
2023-09-30T05:44:54.693Z,28.03
2023-09-30T05:47:26.945Z,26.03
2023-09-30T05:49:57.295Z,25.73
2023-09-30T05:52:27.059Z,32.03
2023-09-30T05:55:06.650Z,30.27
2023-09-30T05:57:36.783Z,35.77
2023-09-30T06:00:22.162Z,36.80
2023-09-30T06:02:53.224Z,32.87
2023-09-30T06:05:31.901Z,32.00
2023-09-30T06:08:10.677Z,35.27
2023-09-30T06:10:44.206Z,33.90
2023-09-30T06:13:13.906Z,36.30
2023-09-30T06:15:52.553Z,39.87
2023-09-30T06:18:24.541Z,39.80
2023-09-30T06:20:59.728Z,34.63
2023-09-30T06:23:31.178Z,34.43
2023-09-30T06:26:03.991Z,41.53
2023-09-30T06:28:35.499Z,37.67
2023-09-30T06:31:12.538Z,40.47
2023-09-30T06:33:43.269Z,42.47
2023-09-30T06:36:16.728Z,42.70
2023-09-30T06:38:56.598Z,36.70
2023-09-30T06:41:37.917Z,37.63
2023-09-30T06:44:07.739Z,39.30
2023-09-30T06:46:52.110Z,46.20
2023-09-30T06:49:23.779Z,48.67
2023-09-30T06:51:54.296Z,41.70
2023-09-30T06:54:25.970Z,41.37
2023-09-30T06:56:57.231Z,35.47
2023-09-30T06:59:27.231Z,40.73
2023-09-30T07:01:57.016Z,33.63
2023-09-30T07:04:27.666Z,40.40
2023-09-30T07:06:57.126Z,44.87
2023-09-30T07:09:28.213Z,39.33
2023-09-30T07:12:12.415Z,39.33
2023-09-30T07:14:41.531Z,35.97
2023-09-30T07:17:10.701Z,47.57
2023-09-30T07:19:40.515Z,39.77
2023-09-30T07:22:09.651Z,42.40
2023-09-30T07:24:44.045Z,46.83
2023-09-30T07:27:24.960Z,40.00
2023-09-30T07:30:03.618Z,40.23
2023-09-30T07:32:39.080Z,38.33
2023-09-30T07:35:09.364Z,40.77
2023-09-30T07:37:39.141Z,38.07
2023-09-30T07:40:19.758Z,40.60
2023-09-30T07:42:51.276Z,36.53
2023-09-30T07:45:26.177Z,48.00
2023-09-30T07:47:55.834Z,44.13
2023-09-30T07:50:27.915Z,36.97
2023-09-30T07:53:00.085Z,36.40
2023-09-30T07:55:31.649Z,39.80
2023-09-30T07:58:05.969Z,32.50
2023-09-30T08:00:39.396Z,37.77
2023-09-30T08:03:11.367Z,33.57
2023-09-30T08:05:42.249Z,35.33
2023-09-30T08:08:12.133Z,30.13
2023-09-30T08:10:41.157Z,33.63
2023-09-30T08:13:17.303Z,27.90
2023-09-30T08:15:48.525Z,32.67
2023-09-30T08:18:19.494Z,27.73
2023-09-30T08:20:57.720Z,29.70
2023-09-30T08:23:26.775Z,33.17
2023-09-30T08:26:01.520Z,29.57
2023-09-30T08:28:38.571Z,26.60
2023-09-30T08:31:21.058Z,27.67
2023-09-30T08:33:50.272Z,28.23
2023-09-30T08:36:26.301Z,22.33
2023-09-30T08:39:09.008Z,24.10
2023-09-30T08:41:47.275Z,30.23
2023-09-30T08:44:20.622Z,23.97
2023-09-30T08:46:51.690Z,22.17
2023-09-30T08:49:22.478Z,29.00
2023-09-30T08:51:52.257Z,23.87
2023-09-30T08:54:34.972Z,22.13
2023-09-30T08:57:14.110Z,21.67
2023-09-30T08:59:54.090Z,29.27
2023-09-30T09:02:24.563Z,21.47
2023-09-30T09:04:54.293Z,22.70
2023-09-30T09:07:26.486Z,21.73
2023-09-30T09:10:12.280Z,22.03
2023-09-30T09:12:42.886Z,22.30
2023-09-30T09:15:26.034Z,21.13
2023-09-30T09:18:00.822Z,21.47
2023-09-30T09:20:33.450Z,25.53
2023-09-30T09:23:13.462Z,24.63
2023-09-30T09:25:48.053Z,20.73
2023-09-30T09:28:19.441Z,21.83
2023-09-30T09:30:50.045Z,21.97
2023-09-30T09:33:22.556Z,22.63
2023-09-30T09:35:54.021Z,18.93
2023-09-30T09:38:23.297Z,21.20
2023-09-30T09:40:57.809Z,22.17
2023-09-30T09:43:29.233Z,21.33
2023-09-30T09:46:05.291Z,20.60
2023-09-30T09:48:34.957Z,21.07
2023-09-30T09:51:09.763Z,20.60
2023-09-30T09:53:49.477Z,21.00
2023-09-30T09:56:19.526Z,21.00
2023-09-30T09:58:56.810Z,20.77
2023-09-30T10:01:42.740Z,24.30
2023-09-30T10:04:16.794Z,20.73
2023-09-30T10:06:52.552Z,22.10
2023-09-30T10:09:24.330Z,20.63
2023-09-30T10:12:06.115Z,21.93
2023-09-30T10:14:40.623Z,22.23
2023-09-30T10:17:17.518Z,19.97
2023-09-30T10:20:10.944Z,22.33
2023-09-30T10:22:42.398Z,22.77
2023-09-30T10:25:41.619Z,21.30
2023-09-30T10:28:40.383Z,24.10
2023-09-30T10:31:14.509Z,21.30
2023-09-30T10:34:16.856Z,21.50
2023-09-30T10:36:53.998Z,21.90
2023-09-30T10:40:01.106Z,22.90
2023-09-30T10:42:51.451Z,21.27
2023-09-30T10:45:48.565Z,23.07
2023-09-30T10:48:40.042Z,23.27
2023-09-30T10:51:25.334Z,23.03
2023-09-30T10:54:02.246Z,23.77
2023-09-30T10:56:36.374Z,21.07
2023-09-30T10:59:06.217Z,22.23
2023-09-30T11:01:36.973Z,22.30
2023-09-30T11:04:08.796Z,24.23
2023-09-30T11:06:42.662Z,25.03
2023-09-30T11:09:18.628Z,23.60
2023-09-30T11:11:55.274Z,23.87
2023-09-30T11:14:31.690Z,23.53
2023-09-30T11:17:02.839Z,24.10
2023-09-30T11:19:38.441Z,23.83
2023-09-30T11:22:07.980Z,23.13
2023-09-30T11:24:39.988Z,23.40
2023-09-30T11:27:10.415Z,22.47
2023-09-30T11:29:54.833Z,26.07
2023-09-30T11:32:28.876Z,22.37
2023-09-30T11:34:58.452Z,22.73
2023-09-30T11:37:36.159Z,23.37
2023-09-30T11:40:17.081Z,23.47
2023-09-30T11:43:14.804Z,27.73
2023-09-30T11:45:47.624Z,23.50
2023-09-30T11:48:25.910Z,24.03
2023-09-30T11:50:56.635Z,24.23
2023-09-30T11:53:27.112Z,24.80
2023-09-30T11:56:00.404Z,23.70
2023-09-30T11:58:33.646Z,22.93
2023-09-30T12:01:04.566Z,26.77
2023-09-30T12:03:39.133Z,23.17
2023-09-30T12:06:11.558Z,23.10
2023-09-30T12:08:40.368Z,27.47
2023-09-30T12:11:14.301Z,23.67
2023-09-30T12:13:43.346Z,24.13
2023-09-30T12:16:17.267Z,23.93
2023-09-30T12:18:49.665Z,25.37
2023-09-30T12:21:23.942Z,24.53
2023-09-30T12:23:52.939Z,26.47
2023-09-30T12:26:42.931Z,23.70
2023-09-30T12:29:20.438Z,22.47
2023-09-30T12:31:59.579Z,23.20
2023-09-30T12:34:34.521Z,23.03
2023-09-30T12:37:06.857Z,22.77
2023-09-30T12:39:38.610Z,25.57
2023-09-30T12:42:10.789Z,23.47
2023-09-30T12:44:40.273Z,23.83
2023-09-30T12:47:09.330Z,24.07
2023-09-30T12:49:38.975Z,25.43
2023-09-30T12:52:08.930Z,24.60
2023-09-30T12:54:39.636Z,26.13
2023-09-30T12:57:10.316Z,25.47
2023-09-30T12:59:39.590Z,23.70
2023-09-30T13:02:22.402Z,23.40
2023-09-30T13:04:58.884Z,25.43
2023-09-30T13:07:30.489Z,24.83
2023-09-30T13:10:02.333Z,26.10
2023-09-30T13:12:36.382Z,24.17
2023-09-30T13:15:07.792Z,25.20
2023-09-30T13:17:37.420Z,25.97
2023-09-30T13:20:12.907Z,24.00
2023-09-30T13:22:41.199Z,24.93
2023-09-30T13:25:13.568Z,24.07
2023-09-30T13:27:45.357Z,25.80
2023-09-30T13:30:14.971Z,25.47
2023-09-30T13:32:45.311Z,25.93
2023-09-30T13:35:17.167Z,24.77
2023-09-30T13:37:46.167Z,25.47
2023-09-30T13:40:16.852Z,27.63
2023-09-30T13:42:48.452Z,26.87
2023-09-30T13:45:23.605Z,25.37
2023-09-30T13:47:52.781Z,24.93
2023-09-30T13:50:21.682Z,25.03
2023-09-30T13:52:53.922Z,24.40
2023-09-30T13:55:24.476Z,24.90
2023-09-30T13:57:55.131Z,24.93
2023-09-30T14:00:24.649Z,24.43
2023-09-30T14:03:02.867Z,26.90
2023-09-30T14:05:32.000Z,25.70
2023-09-30T14:08:03.652Z,26.33
2023-09-30T14:10:32.566Z,25.80
2023-09-30T14:13:02.964Z,25.30
2023-09-30T14:15:34.426Z,26.07
2023-09-30T14:18:05.448Z,25.30
2023-09-30T14:20:37.915Z,26.23
2023-09-30T14:23:07.422Z,24.67
2023-09-30T14:25:36.678Z,25.43
2023-09-30T14:28:08.154Z,26.17
2023-09-30T14:30:38.683Z,24.57
2023-09-30T14:33:08.185Z,25.07
2023-09-30T14:35:37.493Z,25.33
2023-09-30T14:38:07.114Z,24.87
2023-09-30T14:40:40.924Z,25.07
2023-09-30T14:43:12.381Z,24.23
2023-09-30T14:45:43.050Z,25.47
2023-09-30T14:48:12.222Z,25.73
2023-09-30T14:50:50.134Z,26.73
2023-09-30T14:53:21.881Z,24.43
2023-09-30T14:55:53.952Z,26.70
2023-09-30T14:58:24.962Z,25.67
2023-09-30T15:00:55.567Z,25.50
2023-09-30T15:03:31.692Z,24.50
2023-09-30T15:06:03.721Z,24.50
2023-09-30T15:08:33.543Z,24.23
2023-09-30T15:11:02.804Z,24.37
2023-09-30T15:13:42.163Z,22.83
2023-09-30T15:16:18.176Z,24.97
2023-09-30T15:18:51.194Z,24.10
2023-09-30T15:21:21.652Z,24.13
2023-09-30T15:23:50.592Z,25.03
2023-09-30T15:26:19.760Z,25.20
2023-09-30T15:28:51.086Z,25.57
2023-09-30T15:31:21.135Z,23.70
2023-09-30T15:33:51.079Z,26.60
2023-09-30T15:36:23.124Z,24.73
2023-09-30T15:38:55.023Z,26.50
2023-09-30T15:41:27.203Z,25.13
2023-09-30T15:44:02.447Z,25.13
2023-09-30T15:46:35.377Z,24.33
2023-09-30T15:49:05.517Z,23.77
2023-09-30T15:51:35.284Z,22.27
2023-09-30T15:54:04.472Z,22.77
2023-09-30T15:56:45.683Z,24.83
2023-09-30T15:59:21.028Z,25.50
2023-09-30T16:01:50.888Z,26.27
2023-09-30T16:04:20.477Z,24.20
2023-09-30T16:06:52.861Z,26.83
2023-09-30T16:09:23.331Z,25.33
2023-09-30T16:11:53.129Z,27.10
2023-09-30T16:14:23.844Z,26.30
2023-09-30T16:16:56.522Z,24.37
2023-09-30T16:19:27.792Z,24.77
2023-09-30T16:21:57.762Z,24.23
2023-09-30T16:24:27.125Z,25.57
2023-09-30T16:27:00.426Z,24.73
2023-09-30T16:29:32.002Z,24.37
2023-09-30T16:32:00.999Z,23.53
2023-09-30T16:34:31.709Z,24.53
2023-09-30T16:37:01.507Z,25.50
2023-09-30T16:39:32.787Z,24.10
2023-09-30T16:42:01.954Z,23.97
2023-09-30T16:44:32.620Z,23.07
2023-09-30T16:47:02.379Z,23.03
2023-09-30T16:49:31.739Z,24.10
2023-09-30T16:52:02.081Z,22.80
2023-09-30T16:54:31.122Z,24.40
2023-09-30T16:57:02.242Z,24.20
2023-09-30T16:59:35.366Z,23.80
2023-09-30T17:02:05.690Z,25.47
2023-09-30T17:04:34.951Z,23.60
2023-09-30T17:07:14.039Z,26.60
2023-09-30T17:09:43.725Z,23.93
2023-09-30T17:12:14.236Z,24.20
2023-09-30T17:14:44.885Z,26.37
2023-09-30T17:17:14.051Z,25.07
2023-09-30T17:19:50.863Z,24.27
2023-09-30T17:22:23.172Z,24.53
2023-09-30T17:24:53.020Z,25.13
2023-09-30T17:27:22.102Z,25.77
2023-09-30T17:29:53.351Z,24.63
2023-09-30T17:32:22.832Z,23.77
2023-09-30T17:35:01.354Z,27.17
2023-09-30T17:37:31.004Z,23.50
2023-09-30T17:40:00.604Z,23.77
2023-09-30T17:42:29.936Z,25.83
2023-09-30T17:45:00.585Z,22.63
2023-09-30T17:47:29.774Z,24.67
2023-09-30T17:49:58.846Z,25.40
2023-09-30T17:52:31.061Z,26.20
2023-09-30T17:55:00.587Z,25.40
2023-09-30T17:57:29.735Z,24.17
2023-09-30T18:00:02.288Z,24.90
2023-09-30T18:02:40.674Z,23.10
2023-09-30T18:05:10.946Z,25.07
2023-09-30T18:07:40.135Z,25.73
2023-09-30T18:10:11.031Z,22.63
2023-09-30T18:12:40.653Z,24.37
2023-09-30T18:15:13.341Z,24.77
2023-09-30T18:20:13.036Z,24.90
2023-09-30T18:22:42.156Z,25.67
2023-09-30T18:25:11.873Z,23.20
2023-09-30T18:27:42.744Z,24.10
2023-09-30T18:30:13.719Z,24.10
2023-09-30T18:32:50.601Z,26.63
2023-09-30T18:35:22.318Z,26.47
2023-09-30T18:38:02.938Z,26.57
2023-09-30T18:40:32.899Z,25.27
2023-09-30T18:43:11.978Z,22.47
2023-09-30T18:45:46.873Z,23.93
2023-09-30T18:48:16.871Z,27.40
2023-09-30T18:50:47.523Z,27.63
2023-09-30T18:53:17.400Z,24.40
2023-09-30T18:55:51.313Z,27.80
2023-09-30T18:58:21.049Z,26.30
2023-09-30T19:00:51.566Z,26.10
2023-09-30T19:03:20.735Z,23.83
2023-09-30T19:05:55.395Z,25.60
2023-09-30T19:08:25.400Z,24.50
2023-09-30T19:10:54.226Z,25.30
2023-09-30T19:13:23.782Z,24.33
2023-09-30T19:16:08.236Z,23.77
2023-09-30T19:18:39.635Z,24.20
2023-09-30T19:21:13.698Z,23.63
2023-09-30T19:23:46.271Z,22.43
2023-09-30T19:26:17.152Z,23.77
2023-09-30T19:28:47.145Z,22.87
2023-09-30T19:31:18.823Z,23.60
2023-09-30T19:33:49.679Z,25.47
2023-09-30T19:36:20.607Z,23.30
2023-09-30T19:38:50.264Z,23.67
2023-09-30T19:41:34.399Z,24.07
2023-09-30T19:44:09.021Z,22.33
2023-09-30T19:46:46.482Z,23.77
2023-09-30T19:49:23.195Z,23.23
2023-09-30T19:51:57.439Z,24.27
2023-09-30T19:54:26.996Z,24.77
2023-09-30T19:56:59.037Z,23.27
2023-09-30T19:59:36.008Z,24.53
2023-09-30T20:02:07.598Z,21.93
2023-09-30T20:04:41.094Z,23.07
2023-09-30T20:07:19.164Z,23.47
2023-09-30T20:09:54.676Z,22.67
2023-09-30T20:12:28.560Z,23.07
2023-09-30T20:14:58.749Z,23.97
2023-09-30T20:17:33.253Z,22.63
2023-09-30T20:20:05.067Z,23.97
2023-09-30T20:22:52.563Z,22.57
2023-09-30T20:25:31.067Z,22.43
2023-09-30T20:28:02.265Z,24.07
2023-09-30T20:30:34.378Z,23.30
2023-09-30T20:33:05.624Z,23.40
2023-09-30T20:35:39.418Z,22.73
2023-09-30T20:38:09.081Z,23.30
2023-09-30T20:40:47.232Z,22.87
2023-09-30T20:43:16.648Z,22.33
2023-09-30T20:45:45.939Z,24.13
2023-09-30T20:48:16.989Z,23.97
2023-09-30T20:50:54.461Z,23.53
2023-09-30T20:53:23.669Z,25.00
2023-09-30T20:55:57.579Z,24.97
2023-09-30T20:58:27.903Z,22.97
2023-09-30T21:01:11.072Z,24.20
2023-09-30T21:03:43.426Z,21.33
2023-09-30T21:06:12.806Z,22.30
2023-09-30T21:08:44.826Z,24.50
2023-09-30T21:11:14.430Z,23.23
2023-09-30T21:13:48.849Z,23.03
2023-09-30T21:19:07.489Z,24.27
2023-09-30T21:21:44.609Z,22.70
2023-09-30T21:24:19.921Z,23.97
2023-09-30T21:26:50.335Z,23.90
2023-09-30T21:29:20.128Z,25.20
2023-09-30T21:31:49.661Z,22.60
2023-09-30T21:34:21.556Z,23.83
2023-09-30T21:36:54.619Z,23.93
2023-09-30T21:39:27.705Z,24.47
2023-09-30T21:41:56.782Z,23.67
2023-09-30T21:44:31.480Z,25.33
2023-09-30T21:47:00.872Z,26.23
2023-09-30T21:49:32.908Z,23.87
2023-09-30T21:52:14.673Z,24.83
2023-09-30T21:54:45.252Z,24.33
2023-09-30T21:57:21.888Z,24.33
2023-09-30T21:59:53.055Z,23.93
2023-09-30T22:02:25.106Z,24.63
2023-09-30T22:05:01.885Z,26.57
2023-09-30T22:07:44.285Z,23.77
2023-09-30T22:10:20.007Z,24.33
2023-09-30T22:12:52.423Z,23.87
2023-09-30T22:15:30.954Z,25.07
2023-09-30T22:18:13.811Z,23.67
2023-09-30T22:20:48.863Z,24.57
2023-09-30T22:23:20.113Z,24.60
2023-09-30T22:25:55.448Z,24.40
2023-09-30T22:28:25.400Z,24.43
2023-09-30T22:31:01.075Z,24.27
2023-09-30T22:33:33.454Z,23.97
2023-09-30T22:36:07.922Z,24.30
2023-09-30T22:38:40.631Z,24.57
2023-09-30T22:41:12.624Z,23.73
2023-09-30T22:43:41.964Z,24.37
2023-09-30T22:46:14.522Z,23.17
2023-09-30T22:48:43.722Z,23.47
2023-09-30T22:51:14.966Z,24.67
2023-09-30T22:53:44.689Z,26.70
2023-09-30T22:56:23.100Z,24.87
2023-09-30T22:58:53.171Z,23.73
2023-09-30T23:01:27.544Z,23.13
2023-09-30T23:03:59.846Z,23.60
2023-09-30T23:06:39.759Z,22.40
2023-09-30T23:09:15.342Z,22.20
2023-09-30T23:11:50.675Z,21.67
2023-09-30T23:14:20.647Z,23.40
2023-09-30T23:16:52.541Z,22.90
2023-09-30T23:19:22.660Z,24.43
2023-09-30T23:21:58.887Z,24.23
2023-09-30T23:24:32.625Z,22.37
2023-09-30T23:27:10.877Z,23.87
2023-09-30T23:29:44.664Z,22.67
2023-09-30T23:32:26.384Z,24.20
2023-09-30T23:34:56.502Z,23.07
2023-09-30T23:37:39.123Z,24.50
2023-09-30T23:40:18.127Z,22.83
2023-09-30T23:42:53.249Z,23.33
2023-09-30T23:45:27.850Z,26.43
2023-09-30T23:48:01.033Z,24.40
2023-09-30T23:50:31.177Z,24.20
2023-09-30T23:53:06.696Z,24.93
2023-09-30T23:55:38.161Z,22.93
2023-09-30T23:58:11.597Z,23.43
